createdAt,value
2019-03-28T00:01:25.143Z,90.70
2019-03-28T00:03:53.684Z,90.20
2019-03-28T00:06:22.050Z,90.50
2019-03-28T00:08:50.432Z,90.60
2019-03-28T00:11:18.857Z,90.20
2019-03-28T00:13:47.232Z,91.00
2019-03-28T00:16:15.676Z,90.90
2019-03-28T00:18:44.076Z,90.90
2019-03-28T00:21:12.482Z,91.10
2019-03-28T00:23:42.541Z,91.10
2019-03-28T00:26:11.020Z,91.40
2019-03-28T00:28:39.390Z,91.20
2019-03-28T00:31:07.802Z,91.30
2019-03-28T00:33:36.282Z,91.60
2019-03-28T00:36:04.771Z,91.60
2019-03-28T00:38:33.201Z,91.50
2019-03-28T00:41:01.607Z,91.50
2019-03-28T00:43:30.009Z,91.60
2019-03-28T00:45:58.618Z,91.60
2019-03-28T00:48:27.212Z,91.40
2019-03-28T00:50:55.829Z,91.20
2019-03-28T00:53:24.257Z,91.40
2019-03-28T00:55:52.668Z,91.20
2019-03-28T00:58:21.082Z,91.10
2019-03-28T01:00:49.605Z,91.20
2019-03-28T01:03:18.030Z,91.20
2019-03-28T01:05:46.566Z,91.50
2019-03-28T01:08:14.942Z,91.70
2019-03-28T01:10:43.486Z,91.60
2019-03-28T01:13:11.933Z,91.30
2019-03-28T01:15:40.333Z,91.20
2019-03-28T01:18:08.751Z,91.10
2019-03-28T01:20:37.153Z,91.30
2019-03-28T01:23:05.529Z,91.60
2019-03-28T01:25:33.901Z,91.90
2019-03-28T01:28:02.246Z,92.50
2019-03-28T01:30:30.764Z,93.00
2019-03-28T01:32:59.097Z,93.80
2019-03-28T01:35:27.589Z,94.50
2019-03-28T01:37:55.993Z,94.90
2019-03-28T01:40:24.398Z,95.10
2019-03-28T01:42:52.781Z,94.50
2019-03-28T01:45:21.185Z,93.90
2019-03-28T01:47:49.687Z,94.70
2019-03-28T01:50:18.087Z,94.70
2019-03-28T01:52:48.708Z,94.70
2019-03-28T01:55:17.209Z,95.00
2019-03-28T01:57:45.585Z,95.80
2019-03-28T02:00:14.053Z,96.20
2019-03-28T02:02:42.437Z,96.10
2019-03-28T02:05:11.102Z,96.80
2019-03-28T02:07:39.472Z,97.00
2019-03-28T02:10:07.882Z,96.80
2019-03-28T02:12:36.446Z,97.10
2019-03-28T02:15:07.484Z,97.10
2019-03-28T02:17:35.898Z,97.30
2019-03-28T02:20:06.036Z,97.10
2019-03-28T02:22:34.506Z,97.00
2019-03-28T02:25:02.906Z,97.20
2019-03-28T02:27:31.338Z,97.60
2019-03-28T02:29:59.742Z,98.00
2019-03-28T02:32:28.125Z,98.00
2019-03-28T02:35:14.617Z,97.80
2019-03-28T02:37:43.028Z,97.60
2019-03-28T02:49:52.406Z,98.00
2019-03-28T02:52:21.545Z,98.30
2019-03-28T02:54:50.144Z,98.40
2019-03-28T02:57:18.526Z,98.40
2019-03-28T02:59:46.958Z,98.50
2019-03-28T03:02:18.297Z,98.80
2019-03-28T03:04:46.737Z,98.30
2019-03-28T03:07:15.147Z,98.30
2019-03-28T03:09:43.568Z,98.50
2019-03-28T03:12:12.112Z,98.80
2019-03-28T03:14:41.518Z,98.90
2019-03-28T03:17:09.922Z,99.10
2019-03-28T03:19:38.305Z,99.10
2019-03-28T03:22:06.820Z,98.90
2019-03-28T03:24:35.211Z,99.60
2019-03-28T03:27:03.658Z,98.90
2019-03-28T03:29:32.096Z,99.30
2019-03-28T03:32:00.504Z,99.50
2019-03-28T03:34:28.930Z,99.20
2019-03-28T03:36:57.395Z,99.30
2019-03-28T03:39:25.983Z,99.60
2019-03-28T03:41:54.493Z,99.70
2019-03-28T03:44:22.942Z,99.70
2019-03-28T03:46:51.355Z,99.60
2019-03-28T03:49:19.760Z,99.80
2019-03-28T03:51:48.206Z,99.40
2019-03-28T03:54:16.628Z,98.70
2019-03-28T03:56:45.208Z,98.90
2019-03-28T03:59:13.593Z,99.10
2019-03-28T04:01:41.965Z,99.50
2019-03-28T04:04:10.366Z,99.70
2019-03-28T04:06:38.747Z,99.70
2019-03-28T04:09:07.475Z,99.60
2019-03-28T04:11:35.906Z,98.90
2019-03-28T04:14:04.684Z,99.00
2019-03-28T04:16:33.069Z,98.90
2019-03-28T04:19:01.457Z,98.40
2019-03-28T04:21:29.882Z,98.10
2019-03-28T04:23:58.274Z,98.70
2019-03-28T04:26:27.426Z,99.10
2019-03-28T04:28:55.851Z,99.30
2019-03-28T04:31:24.269Z,99.40
2019-03-28T04:33:52.735Z,99.50
2019-03-28T04:36:21.117Z,99.40
2019-03-28T04:38:50.539Z,99.30
2019-03-28T04:41:19.168Z,99.50
2019-03-28T04:43:47.537Z,99.70
2019-03-28T04:46:15.950Z,99.30
2019-03-28T04:48:44.401Z,99.70
2019-03-28T04:51:14.143Z,99.90
2019-03-28T04:53:42.551Z,99.90
2019-03-28T04:56:10.987Z,98.90
2019-03-28T04:58:44.636Z,98.60
2019-03-28T05:01:09.462Z,98.40
2019-03-28T05:03:37.849Z,97.90
2019-03-28T05:06:06.270Z,97.80
2019-03-28T05:08:34.687Z,97.20
2019-03-28T05:11:03.065Z,96.70
2019-03-28T05:13:31.452Z,96.40
2019-03-28T05:15:59.871Z,96.30
2019-03-28T05:18:28.265Z,96.60
2019-03-28T05:20:56.693Z,96.70
2019-03-28T05:23:25.107Z,96.70
2019-03-28T05:25:53.515Z,96.70
2019-03-28T05:28:21.925Z,97.00
2019-03-28T05:30:50.330Z,97.20
2019-03-28T05:33:18.738Z,97.20
2019-03-28T05:35:47.173Z,97.30
2019-03-28T05:38:15.556Z,97.00
2019-03-28T05:40:44.025Z,96.70
2019-03-28T05:43:14.086Z,96.10
2019-03-28T05:45:42.676Z,95.90
2019-03-28T05:48:11.025Z,95.60
2019-03-28T05:50:39.442Z,95.50
2019-03-28T05:53:07.895Z,95.50
2019-03-28T05:55:36.306Z,95.50
2019-03-28T05:58:04.720Z,95.40
2019-03-28T06:00:38.792Z,94.90
2019-03-28T06:03:04.495Z,94.60
2019-03-28T06:05:32.888Z,94.30
2019-03-28T06:08:01.270Z,93.70
2019-03-28T06:10:29.658Z,93.50
2019-03-28T06:12:58.275Z,93.70
2019-03-28T06:15:26.642Z,93.30
2019-03-28T06:17:55.052Z,93.50
2019-03-28T06:20:23.453Z,93.50
2019-03-28T06:22:51.865Z,94.20
2019-03-28T06:25:20.273Z,94.00
2019-03-28T06:27:48.691Z,94.70
2019-03-28T06:30:17.098Z,95.60
2019-03-28T06:32:45.652Z,95.80
2019-03-28T06:35:14.032Z,96.10
2019-03-28T06:37:42.406Z,95.80
2019-03-28T06:40:10.805Z,95.60
2019-03-28T06:42:39.371Z,95.80
2019-03-28T06:45:07.985Z,95.70
2019-03-28T06:47:36.537Z,95.70
2019-03-28T06:50:07.869Z,95.80
2019-03-28T06:52:36.470Z,95.60
2019-03-28T06:55:05.214Z,95.70
2019-03-28T06:57:33.631Z,95.70
2019-03-28T07:00:02.006Z,95.40
2019-03-28T07:02:30.442Z,95.00
2019-03-28T07:04:58.811Z,94.80
2019-03-28T07:07:27.148Z,94.90
2019-03-28T07:09:55.535Z,95.20
2019-03-28T07:12:23.915Z,95.70
2019-03-28T07:14:52.329Z,96.20
2019-03-28T07:17:20.739Z,96.20
2019-03-28T07:19:49.178Z,96.20
2019-03-28T07:22:17.581Z,95.90
2019-03-28T07:24:45.985Z,95.70
2019-03-28T07:27:14.368Z,95.30
2019-03-28T07:29:50.743Z,95.20
2019-03-28T07:32:12.919Z,95.50
2019-03-28T07:34:41.334Z,95.50
2019-03-28T07:37:09.706Z,95.30
2019-03-28T07:39:38.193Z,95.30
2019-03-28T07:42:06.620Z,94.50
2019-03-28T07:44:37.506Z,93.90
2019-03-28T07:47:05.055Z,93.60
2019-03-28T07:49:33.437Z,93.90
2019-03-28T07:52:01.854Z,94.20
2019-03-28T07:54:30.229Z,94.20
2019-03-28T07:56:58.650Z,93.90
2019-03-28T07:59:27.046Z,93.40
2019-03-28T08:01:55.424Z,93.40
2019-03-28T08:04:23.797Z,93.20
2019-03-28T08:06:52.143Z,92.80
2019-03-28T08:09:20.570Z,92.80
2019-03-28T08:11:48.984Z,92.70
2019-03-28T08:14:17.369Z,92.70
2019-03-28T08:16:45.779Z,92.00
2019-03-28T08:19:14.177Z,90.20
2019-03-28T08:21:42.577Z,87.20
2019-03-28T08:24:11.161Z,85.80
2019-03-28T08:26:39.637Z,85.70
2019-03-28T08:29:08.017Z,84.70
2019-03-28T08:31:40.718Z,83.90
2019-03-28T08:34:08.395Z,82.30
2019-03-28T08:36:36.957Z,82.90
2019-03-28T08:39:06.732Z,80.20
2019-03-28T08:41:35.125Z,78.50
2019-03-28T08:44:03.533Z,74.10
2019-03-28T08:46:32.092Z,67.40
2019-03-28T08:49:00.486Z,69.00
2019-03-28T08:51:28.925Z,60.80
2019-03-28T08:53:57.353Z,54.20
2019-03-28T08:56:25.751Z,55.00
2019-03-28T08:58:54.166Z,55.30
2019-03-28T09:01:23.172Z,54.40
2019-03-28T09:03:51.570Z,60.70
2019-03-28T09:06:20.133Z,68.20
2019-03-28T09:08:48.597Z,69.10
2019-03-28T09:11:17.034Z,70.40
2019-03-28T09:13:45.373Z,73.40
2019-03-28T09:16:13.795Z,71.90
2019-03-28T09:18:42.349Z,72.60
2019-03-28T09:21:10.927Z,73.70
2019-03-28T09:23:39.298Z,73.30
2019-03-28T09:26:07.711Z,70.70
2019-03-28T09:28:36.115Z,70.50
2019-03-28T09:31:04.530Z,70.50
2019-03-28T09:33:32.909Z,69.40
2019-03-28T09:36:01.305Z,72.60
2019-03-28T09:38:29.727Z,70.80
2019-03-28T09:40:58.140Z,71.70
2019-03-28T09:43:26.548Z,70.50
2019-03-28T09:45:55.001Z,71.00
2019-03-28T09:48:23.358Z,67.70
2019-03-28T09:50:51.739Z,67.50
2019-03-28T09:53:20.142Z,66.80
2019-03-28T09:55:48.594Z,63.60
2019-03-28T09:58:16.993Z,63.70
2019-03-28T10:00:45.494Z,64.50
2019-03-28T10:03:13.903Z,62.30
2019-03-28T10:05:42.319Z,65.50
2019-03-28T10:08:10.682Z,66.40
2019-03-28T10:10:39.065Z,65.50
2019-03-28T10:13:07.550Z,61.30
2019-03-28T10:15:37.128Z,60.90
2019-03-28T10:18:05.683Z,63.30
2019-03-28T10:20:34.057Z,63.10
2019-03-28T10:23:02.538Z,60.90
2019-03-28T10:25:30.923Z,60.70
2019-03-28T10:27:59.273Z,61.40
2019-03-28T10:30:39.126Z,60.30
2019-03-28T10:33:07.877Z,60.10
2019-03-28T10:35:36.293Z,63.40
2019-03-28T10:38:05.559Z,63.70
2019-03-28T10:40:34.099Z,64.60
2019-03-28T10:43:02.682Z,62.10
2019-03-28T10:45:33.606Z,63.40
2019-03-28T10:48:01.207Z,59.90
2019-03-28T10:50:40.183Z,60.70
2019-03-28T10:52:59.683Z,59.00
2019-03-28T10:55:28.057Z,59.40
2019-03-28T10:57:56.493Z,60.80
2019-03-28T11:00:25.859Z,60.20
2019-03-28T11:02:54.470Z,59.70
2019-03-28T11:05:23.004Z,60.60
2019-03-28T11:07:51.444Z,61.80
2019-03-28T11:10:19.844Z,63.10
2019-03-28T11:12:48.343Z,63.30
2019-03-28T11:15:16.822Z,63.40
2019-03-28T11:17:45.190Z,61.20
2019-03-28T11:20:13.645Z,61.40
2019-03-28T11:22:42.051Z,62.90
2019-03-28T11:25:10.459Z,60.70
2019-03-28T11:27:38.843Z,59.80
2019-03-28T11:30:08.128Z,59.80
2019-03-28T11:32:36.567Z,60.70
2019-03-28T11:35:08.454Z,60.10
2019-03-28T11:37:37.218Z,60.60
2019-03-28T11:40:09.237Z,60.50
2019-03-28T11:42:37.675Z,59.30
2019-03-28T11:45:09.279Z,59.10
2019-03-28T11:47:37.254Z,59.10
2019-03-28T11:50:08.370Z,58.20
2019-03-28T11:52:37.098Z,58.00
2019-03-28T11:55:07.121Z,57.30
2019-03-28T11:57:36.462Z,58.80
2019-03-28T12:00:05.883Z,58.50
2019-03-28T12:02:33.585Z,58.20
2019-03-28T12:05:02.026Z,57.30
2019-03-28T12:07:30.437Z,57.60
2019-03-28T12:09:58.850Z,56.30
2019-03-28T12:12:27.282Z,57.60
2019-03-28T12:14:55.691Z,56.60
2019-03-28T12:17:24.069Z,55.30
2019-03-28T12:19:52.482Z,55.10
2019-03-28T12:22:20.925Z,55.00
2019-03-28T12:24:49.478Z,55.00
2019-03-28T12:27:17.816Z,51.60
2019-03-28T12:29:46.229Z,51.30
2019-03-28T12:32:14.756Z,50.80
2019-03-28T12:34:43.252Z,48.80
2019-03-28T12:37:11.749Z,50.00
2019-03-28T12:39:40.146Z,49.70
2019-03-28T12:42:08.572Z,49.80
2019-03-28T12:44:36.970Z,50.70
2019-03-28T12:47:05.373Z,50.10
2019-03-28T12:49:33.742Z,49.90
2019-03-28T12:52:02.182Z,50.40
2019-03-28T12:54:30.549Z,50.80
2019-03-28T12:56:59.090Z,49.40
2019-03-28T12:59:27.459Z,49.90
2019-03-28T13:01:55.870Z,50.30
2019-03-28T13:04:24.278Z,51.10
2019-03-28T13:06:52.654Z,50.40
2019-03-28T13:09:21.033Z,50.60
2019-03-28T13:11:49.417Z,49.90
2019-03-28T13:14:17.830Z,50.30
2019-03-28T13:16:46.201Z,50.20
2019-03-28T13:19:14.581Z,50.10
2019-03-28T13:21:43.029Z,49.50
2019-03-28T13:24:11.555Z,49.60
2019-03-28T13:26:39.949Z,50.60
2019-03-28T13:29:08.529Z,50.00
2019-03-28T13:31:36.989Z,49.60
2019-03-28T13:34:05.399Z,49.40
2019-03-28T13:36:33.813Z,49.50
2019-03-28T13:39:02.218Z,49.00
2019-03-28T13:41:30.622Z,48.00
2019-03-28T13:43:58.988Z,47.60
2019-03-28T13:46:27.411Z,46.20
2019-03-28T13:48:55.839Z,47.10
2019-03-28T13:51:24.202Z,47.20
2019-03-28T13:53:53.754Z,47.40
2019-03-28T13:56:22.383Z,47.70
2019-03-28T13:58:50.762Z,48.50
2019-03-28T14:01:19.190Z,47.60
2019-03-28T14:03:47.582Z,48.10
2019-03-28T14:06:15.965Z,47.80
2019-03-28T14:08:44.342Z,47.40
2019-03-28T14:11:12.746Z,47.60
2019-03-28T14:13:41.274Z,47.60
2019-03-28T14:16:09.678Z,48.60
2019-03-28T14:18:38.094Z,48.80
2019-03-28T14:21:06.482Z,48.90
2019-03-28T14:23:35.554Z,48.50
2019-03-28T14:26:03.930Z,49.40
2019-03-28T14:28:32.333Z,48.90
2019-03-28T14:31:01.057Z,49.00
2019-03-28T14:33:29.629Z,49.40
2019-03-28T14:35:58.115Z,49.80
2019-03-28T14:38:26.594Z,49.60
2019-03-28T14:40:57.033Z,49.50
2019-03-28T14:43:25.016Z,49.80
2019-03-28T14:45:53.401Z,49.20
2019-03-28T14:48:21.859Z,48.90
2019-03-28T14:50:50.334Z,49.20
2019-03-28T14:53:21.993Z,48.70
2019-03-28T14:55:48.837Z,48.40
2019-03-28T14:58:17.416Z,48.40
2019-03-28T15:00:50.994Z,48.20
2019-03-28T15:03:26.176Z,48.80
2019-03-28T15:05:49.437Z,49.10
2019-03-28T15:08:18.428Z,48.80
2019-03-28T15:10:46.832Z,49.10
2019-03-28T15:13:15.237Z,50.00
2019-03-28T15:15:43.634Z,49.70
2019-03-28T15:18:12.063Z,49.70
2019-03-28T15:20:40.602Z,49.50
2019-03-28T15:23:08.993Z,49.90
2019-03-28T15:25:37.464Z,49.10
2019-03-28T15:28:05.857Z,48.90
2019-03-28T15:30:34.247Z,49.00
2019-03-28T15:33:02.670Z,49.50
2019-03-28T15:35:31.182Z,50.20
2019-03-28T15:37:59.694Z,50.40
2019-03-28T15:40:28.137Z,50.70
2019-03-28T15:42:56.590Z,51.20
2019-03-28T15:45:24.993Z,51.70
2019-03-28T15:47:53.390Z,52.20
2019-03-28T15:50:21.804Z,52.30
2019-03-28T15:52:50.184Z,52.50
2019-03-28T15:55:18.602Z,53.10
2019-03-28T15:57:47.007Z,54.00
2019-03-28T16:00:15.617Z,54.00
2019-03-28T16:02:44.025Z,54.20
2019-03-28T16:05:12.401Z,54.10
2019-03-28T16:07:40.857Z,54.80
2019-03-28T16:10:09.264Z,55.40
2019-03-28T16:12:37.663Z,55.40
2019-03-28T16:15:07.542Z,55.80
2019-03-28T16:17:35.945Z,55.50
2019-03-28T16:20:05.590Z,55.40
2019-03-28T16:22:34.003Z,55.70
2019-03-28T16:25:02.369Z,56.20
2019-03-28T16:27:30.778Z,56.40
2019-03-28T16:29:59.389Z,57.20
2019-03-28T16:32:28.373Z,57.70
2019-03-28T16:34:57.342Z,57.70
2019-03-28T16:37:25.728Z,57.60
2019-03-28T16:39:54.142Z,58.30
2019-03-28T16:42:22.532Z,58.90
2019-03-28T16:44:50.871Z,59.50
2019-03-28T16:47:19.384Z,59.00
2019-03-28T16:49:47.785Z,59.10
2019-03-28T16:52:16.182Z,59.80
2019-03-28T16:54:44.593Z,60.00
2019-03-28T16:57:13.033Z,60.90
2019-03-28T16:59:41.426Z,61.40
2019-03-28T17:02:09.831Z,61.10
2019-03-28T17:04:38.273Z,61.10
2019-03-28T17:07:07.545Z,61.70
2019-03-28T17:09:37.690Z,61.90
2019-03-28T17:12:06.790Z,61.90
2019-03-28T17:14:35.130Z,62.60
2019-03-28T17:17:03.633Z,62.70
2019-03-28T17:19:32.074Z,62.30
2019-03-28T17:22:00.602Z,62.60
2019-03-28T17:24:28.969Z,62.70
2019-03-28T17:26:57.349Z,63.10
2019-03-28T17:29:25.731Z,63.90
2019-03-28T17:31:54.148Z,63.50
2019-03-28T17:34:34.049Z,63.20
2019-03-28T17:36:52.549Z,63.80
2019-03-28T17:39:20.960Z,64.10
2019-03-28T17:41:49.395Z,63.70
2019-03-28T17:44:17.840Z,63.80
2019-03-28T17:46:46.221Z,63.90
2019-03-28T17:49:14.681Z,64.50
2019-03-28T17:51:43.041Z,64.50
2019-03-28T17:54:11.955Z,63.30
2019-03-28T17:56:40.565Z,63.20
2019-03-28T17:59:08.962Z,62.30
2019-03-28T18:01:37.495Z,61.60
2019-03-28T18:04:06.870Z,61.80
2019-03-28T18:06:35.348Z,62.10
2019-03-28T18:09:05.878Z,63.40
2019-03-28T18:11:34.274Z,63.50
2019-03-28T18:14:02.687Z,62.70
2019-03-28T18:16:31.098Z,62.10
2019-03-28T18:18:59.497Z,61.80
2019-03-28T18:21:27.948Z,61.60
2019-03-28T18:23:56.497Z,61.90
2019-03-28T18:26:25.135Z,62.20
2019-03-28T18:28:54.114Z,61.50
2019-03-28T18:31:22.543Z,61.00
2019-03-28T18:33:50.974Z,60.70
2019-03-28T18:36:19.403Z,60.70
2019-03-28T18:38:47.789Z,61.20
2019-03-28T18:41:16.165Z,61.30
2019-03-28T18:43:44.569Z,62.10
2019-03-28T18:46:14.703Z,62.50
2019-03-28T18:48:43.043Z,63.10
2019-03-28T18:51:11.446Z,62.90
2019-03-28T18:53:39.851Z,62.70
2019-03-28T18:56:08.367Z,62.00
2019-03-28T18:58:36.855Z,62.10
2019-03-28T19:01:05.249Z,61.70
2019-03-28T19:03:33.624Z,61.70
2019-03-28T19:06:02.052Z,61.80
2019-03-28T19:08:30.459Z,62.30
2019-03-28T19:10:58.853Z,62.30
2019-03-28T19:13:27.262Z,62.10
2019-03-28T19:15:55.645Z,62.10
2019-03-28T19:18:24.045Z,62.60
2019-03-28T19:20:52.480Z,62.70
2019-03-28T19:23:20.946Z,63.00
2019-03-28T19:25:49.387Z,63.50
2019-03-28T19:28:28.126Z,64.10
2019-03-28T19:30:47.820Z,64.20
2019-03-28T19:33:16.258Z,63.80
2019-03-28T19:35:44.692Z,64.30
2019-03-28T19:38:13.170Z,64.80
2019-03-28T19:40:41.529Z,64.80
2019-03-28T19:43:20.480Z,65.40
2019-03-28T19:45:40.150Z,65.50
2019-03-28T19:48:08.546Z,65.80
2019-03-28T19:50:37.002Z,66.30
2019-03-28T19:53:05.388Z,67.10
2019-03-28T19:55:33.770Z,67.70
2019-03-28T19:58:02.192Z,68.20
2019-03-28T20:00:30.585Z,69.00
2019-03-28T20:03:00.546Z,69.80
2019-03-28T20:05:29.034Z,70.70
2019-03-28T20:07:57.451Z,70.90
2019-03-28T20:10:25.842Z,71.40
2019-03-28T20:12:54.279Z,72.40
2019-03-28T20:15:22.628Z,72.70
2019-03-28T20:17:51.035Z,72.30
2019-03-28T20:20:19.479Z,73.00
2019-03-28T20:22:47.848Z,73.40
2019-03-28T20:25:16.231Z,74.00
2019-03-28T20:27:44.634Z,73.80
2019-03-28T20:30:13.038Z,74.30
2019-03-28T20:32:41.405Z,74.90
2019-03-28T20:35:10.752Z,75.40
2019-03-28T20:37:39.399Z,76.00
2019-03-28T20:40:08.006Z,76.50
2019-03-28T20:42:36.442Z,77.00
2019-03-28T20:45:06.677Z,77.20
2019-03-28T20:47:35.069Z,77.40
2019-03-28T20:50:05.751Z,77.80
2019-03-28T20:52:34.154Z,78.00
2019-03-28T20:55:02.529Z,78.40
2019-03-28T20:57:30.893Z,79.00
2019-03-28T20:59:59.299Z,79.50
2019-03-28T21:02:27.695Z,79.70
2019-03-28T21:04:56.102Z,80.00
2019-03-28T21:07:24.517Z,80.30
2019-03-28T21:09:52.884Z,80.60
2019-03-28T21:12:21.217Z,81.10
2019-03-28T21:14:49.627Z,81.50
2019-03-28T21:17:18.058Z,81.90
2019-03-28T21:19:46.478Z,82.10
2019-03-28T21:22:14.851Z,82.60
2019-03-28T21:24:43.188Z,82.80
2019-03-28T21:27:11.613Z,82.90
2019-03-28T21:29:48.894Z,83.50
2019-03-28T21:32:10.221Z,83.80
2019-03-28T21:34:38.636Z,84.30
2019-03-28T21:37:07.095Z,84.80
2019-03-28T21:39:35.479Z,84.70
2019-03-28T21:42:06.973Z,85.00
2019-03-28T21:44:34.023Z,85.30
2019-03-28T21:47:02.373Z,85.90
2019-03-28T21:49:30.780Z,86.10
2019-03-28T21:51:59.153Z,86.10
2019-03-28T21:54:27.558Z,86.50
2019-03-28T21:56:55.978Z,86.60
2019-03-28T21:59:24.399Z,87.00
2019-03-28T22:01:52.800Z,87.20
2019-03-28T22:04:21.188Z,87.60
2019-03-28T22:06:49.737Z,87.80
2019-03-28T22:09:18.206Z,88.50
2019-03-28T22:11:46.599Z,87.70
2019-03-28T22:14:15.045Z,88.80
2019-03-28T22:16:43.446Z,88.10
2019-03-28T22:19:11.844Z,88.20
2019-03-28T22:21:40.209Z,88.40
2019-03-28T22:24:08.766Z,88.80
2019-03-28T22:26:37.161Z,88.90
2019-03-28T22:29:05.531Z,89.10
2019-03-28T22:31:33.964Z,89.30
2019-03-28T22:34:02.311Z,89.60
2019-03-28T22:36:30.680Z,89.60
2019-03-28T22:38:59.019Z,89.90
2019-03-28T22:41:27.400Z,90.10
2019-03-28T22:43:55.843Z,90.10
2019-03-28T22:46:24.244Z,90.10
2019-03-28T22:48:52.615Z,90.20
2019-03-28T22:51:21.025Z,90.30
2019-03-28T22:53:49.397Z,90.30
2019-03-28T22:56:17.802Z,90.40
2019-03-28T22:58:46.175Z,90.50
2019-03-28T23:01:14.665Z,90.60
2019-03-28T23:03:43.166Z,90.70
2019-03-28T23:06:11.599Z,90.70
2019-03-28T23:08:39.973Z,90.90
2019-03-28T23:11:08.353Z,91.00
2019-03-28T23:13:36.848Z,91.00
2019-03-28T23:16:05.218Z,91.10
2019-03-28T23:18:33.622Z,91.10
2019-03-28T23:21:02.022Z,91.20
2019-03-28T23:23:30.385Z,91.20
2019-03-28T23:25:58.795Z,91.30
2019-03-28T23:28:27.238Z,91.40
2019-03-28T23:30:55.606Z,91.70
2019-03-28T23:33:24.112Z,91.60
2019-03-28T23:35:52.478Z,91.70
2019-03-28T23:38:20.846Z,91.70
2019-03-28T23:40:49.261Z,91.80
2019-03-28T23:43:17.662Z,92.00
2019-03-28T23:45:46.071Z,92.10
2019-03-28T23:48:14.474Z,92.20
2019-03-28T23:50:42.871Z,92.20
2019-03-28T23:53:11.262Z,92.20
2019-03-28T23:55:39.627Z,92.30
2019-03-28T23:58:08.056Z,92.30
